sensor_id;sensor_type;location;lat;lon;timestamp;P1;durP1;ratioP1;P2;durP2;ratioP2
11197;SDS011;5655;48.744;9.162;2024-02-15T00:02:19;2.17;;;1.13;;
11197;SDS011;5655;48.744;9.162;2024-02-15T00:04:45;1.80;;;1.25;;
11197;SDS011;5655;48.744;9.162;2024-02-15T00:07:10;1.55;;;0.70;;
11197;SDS011;5655;48.744;9.162;2024-02-15T00:09:35;3.38;;;1.30;;
11197;SDS011;5655;48.744;9.162;2024-02-15T00:12:01;2.55;;;1.30;;
11197;SDS011;5655;48.744;9.162;2024-02-15T00:14:27;2.08;;;1.23;;
11197;SDS011;5655;48.744;9.162;2024-02-15T00:16:56;4.72;;;1.48;;
11197;SDS011;5655;48.744;9.162;2024-02-15T00:19:21;2.75;;;1.02;;
11197;SDS011;5655;48.744;9.162;2024-02-15T00:21:47;4.60;;;1.20;;
11197;SDS011;5655;48.744;9.162;2024-02-15T00:24:13;4.57;;;1.40;;
11197;SDS011;5655;48.744;9.162;2024-02-15T00:26:39;2.13;;;1.10;;
11197;SDS011;5655;48.744;9.162;2024-02-15T00:29:05;2.28;;;1.17;;
11197;SDS011;5655;48.744;9.162;2024-02-15T00:31:30;3.80;;;1.42;;
11197;SDS011;5655;48.744;9.162;2024-02-15T00:33:55;2.45;;;1.15;;
11197;SDS011;5655;48.744;9.162;2024-02-15T00:36:21;4.97;;;2.13;;
11197;SDS011;5655;48.744;9.162;2024-02-15T00:38:46;1.70;;;1.30;;
11197;SDS011;5655;48.744;9.162;2024-02-15T00:41:11;3.72;;;1.88;;
11197;SDS011;5655;48.744;9.162;2024-02-15T00:43:37;3.55;;;1.80;;
11197;SDS011;5655;48.744;9.162;2024-02-15T00:46:03;4.35;;;1.48;;
11197;SDS011;5655;48.744;9.162;2024-02-15T00:48:28;4.20;;;1.13;;
11197;SDS011;5655;48.744;9.162;2024-02-15T00:50:54;2.00;;;1.30;;
11197;SDS011;5655;48.744;9.162;2024-02-15T00:53:20;2.47;;;1.30;;
11197;SDS011;5655;48.744;9.162;2024-02-15T00:55:46;2.72;;;1.27;;
11197;SDS011;5655;48.744;9.162;2024-02-15T00:58:11;2.42;;;1.30;;
11197;SDS011;5655;48.744;9.162;2024-02-15T01:00:37;3.10;;;1.50;;
11197;SDS011;5655;48.744;9.162;2024-02-15T01:03:03;2.28;;;1.13;;
11197;SDS011;5655;48.744;9.162;2024-02-15T01:05:28;5.20;;;1.30;;
11197;SDS011;5655;48.744;9.162;2024-02-15T01:07:55;3.03;;;1.23;;
11197;SDS011;5655;48.744;9.162;2024-02-15T01:10:21;2.92;;;1.35;;
11197;SDS011;5655;48.744;9.162;2024-02-15T01:12:47;3.20;;;1.50;;
11197;SDS011;5655;48.744;9.162;2024-02-15T01:15:13;2.78;;;1.60;;
11197;SDS011;5655;48.744;9.162;2024-02-15T01:17:43;2.17;;;1.45;;
11197;SDS011;5655;48.744;9.162;2024-02-15T01:20:08;2.65;;;1.38;;
11197;SDS011;5655;48.744;9.162;2024-02-15T01:22:34;3.17;;;2.03;;
11197;SDS011;5655;48.744;9.162;2024-02-15T01:25:00;1.65;;;1.23;;
11197;SDS011;5655;48.744;9.162;2024-02-15T01:27:25;2.58;;;1.85;;
11197;SDS011;5655;48.744;9.162;2024-02-15T01:29:54;2.00;;;1.63;;
11197;SDS011;5655;48.744;9.162;2024-02-15T01:32:20;3.22;;;1.88;;
11197;SDS011;5655;48.744;9.162;2024-02-15T01:34:45;2.80;;;1.73;;
11197;SDS011;5655;48.744;9.162;2024-02-15T01:37:11;3.90;;;1.70;;
11197;SDS011;5655;48.744;9.162;2024-02-15T01:39:36;2.20;;;1.50;;
11197;SDS011;5655;48.744;9.162;2024-02-15T01:42:01;4.00;;;1.60;;
11197;SDS011;5655;48.744;9.162;2024-02-15T01:44:28;2.72;;;1.35;;
11197;SDS011;5655;48.744;9.162;2024-02-15T01:46:53;4.45;;;1.50;;
11197;SDS011;5655;48.744;9.162;2024-02-15T01:49:22;5.32;;;1.67;;
11197;SDS011;5655;48.744;9.162;2024-02-15T01:51:50;2.55;;;1.27;;
11197;SDS011;5655;48.744;9.162;2024-02-15T01:54:18;3.08;;;1.23;;
11197;SDS011;5655;48.744;9.162;2024-02-15T01:56:44;1.25;;;1.10;;
11197;SDS011;5655;48.744;9.162;2024-02-15T01:59:10;1.75;;;1.10;;
11197;SDS011;5655;48.744;9.162;2024-02-15T02:01:37;3.13;;;1.30;;
11197;SDS011;5655;48.744;9.162;2024-02-15T02:04:03;2.75;;;1.40;;
11197;SDS011;5655;48.744;9.162;2024-02-15T02:06:30;3.53;;;1.27;;
11197;SDS011;5655;48.744;9.162;2024-02-15T02:08:56;3.60;;;2.00;;
11197;SDS011;5655;48.744;9.162;2024-02-15T02:11:22;4.15;;;1.58;;
11197;SDS011;5655;48.744;9.162;2024-02-15T02:13:48;1.98;;;1.65;;
11197;SDS011;5655;48.744;9.162;2024-02-15T02:16:26;1.98;;;1.30;;
11197;SDS011;5655;48.744;9.162;2024-02-15T02:18:52;3.05;;;2.10;;
11197;SDS011;5655;48.744;9.162;2024-02-15T02:21:18;2.53;;;1.40;;
11197;SDS011;5655;48.744;9.162;2024-02-15T02:23:43;2.00;;;1.50;;
11197;SDS011;5655;48.744;9.162;2024-02-15T02:26:14;2.72;;;1.40;;
11197;SDS011;5655;48.744;9.162;2024-02-15T02:28:40;2.95;;;1.27;;
11197;SDS011;5655;48.744;9.162;2024-02-15T02:31:06;2.60;;;1.90;;
11197;SDS011;5655;48.744;9.162;2024-02-15T02:33:31;2.88;;;1.70;;
11197;SDS011;5655;48.744;9.162;2024-02-15T02:35:56;2.70;;;1.70;;
11197;SDS011;5655;48.744;9.162;2024-02-15T02:38:22;2.72;;;1.60;;
11197;SDS011;5655;48.744;9.162;2024-02-15T02:40:51;3.90;;;1.65;;
11197;SDS011;5655;48.744;9.162;2024-02-15T02:43:17;1.55;;;1.40;;
11197;SDS011;5655;48.744;9.162;2024-02-15T02:45:42;2.28;;;1.60;;
11197;SDS011;5655;48.744;9.162;2024-02-15T02:48:08;2.80;;;1.45;;
11197;SDS011;5655;48.744;9.162;2024-02-15T02:50:33;3.25;;;1.98;;
11197;SDS011;5655;48.744;9.162;2024-02-15T02:52:58;2.80;;;1.50;;
11197;SDS011;5655;48.744;9.162;2024-02-15T02:55:24;4.05;;;1.50;;
11197;SDS011;5655;48.744;9.162;2024-02-15T02:57:52;4.88;;;1.50;;
11197;SDS011;5655;48.744;9.162;2024-02-15T03:00:18;2.28;;;1.67;;
11197;SDS011;5655;48.744;9.162;2024-02-15T03:02:43;3.33;;;1.90;;
11197;SDS011;5655;48.744;9.162;2024-02-15T03:05:10;3.15;;;1.33;;
11197;SDS011;5655;48.744;9.162;2024-02-15T03:07:36;3.03;;;1.60;;
11197;SDS011;5655;48.744;9.162;2024-02-15T03:10:03;3.28;;;1.50;;
11197;SDS011;5655;48.744;9.162;2024-02-15T03:12:30;2.38;;;1.20;;
11197;SDS011;5655;48.744;9.162;2024-02-15T03:14:56;2.90;;;1.60;;
11197;SDS011;5655;48.744;9.162;2024-02-15T03:17:22;4.35;;;2.35;;
11197;SDS011;5655;48.744;9.162;2024-02-15T03:19:48;4.80;;;1.83;;
11197;SDS011;5655;48.744;9.162;2024-02-15T03:22:14;1.98;;;1.30;;
11197;SDS011;5655;48.744;9.162;2024-02-15T03:24:40;3.63;;;1.55;;
11197;SDS011;5655;48.744;9.162;2024-02-15T03:27:05;2.08;;;1.30;;
11197;SDS011;5655;48.744;9.162;2024-02-15T03:29:30;4.07;;;1.50;;
11197;SDS011;5655;48.744;9.162;2024-02-15T03:31:56;2.08;;;1.42;;
11197;SDS011;5655;48.744;9.162;2024-02-15T03:34:21;2.85;;;1.58;;
11197;SDS011;5655;48.744;9.162;2024-02-15T03:36:48;2.15;;;1.50;;
11197;SDS011;5655;48.744;9.162;2024-02-15T03:39:18;2.05;;;1.60;;
11197;SDS011;5655;48.744;9.162;2024-02-15T03:41:43;3.50;;;1.85;;
11197;SDS011;5655;48.744;9.162;2024-02-15T03:44:10;2.45;;;1.70;;
11197;SDS011;5655;48.744;9.162;2024-02-15T03:46:36;4.40;;;1.63;;
11197;SDS011;5655;48.744;9.162;2024-02-15T03:49:02;3.05;;;1.73;;
11197;SDS011;5655;48.744;9.162;2024-02-15T03:51:27;4.38;;;1.88;;
11197;SDS011;5655;48.744;9.162;2024-02-15T03:53:52;3.40;;;1.52;;
11197;SDS011;5655;48.744;9.162;2024-02-15T03:56:18;3.17;;;1.90;;
11197;SDS011;5655;48.744;9.162;2024-02-15T03:58:46;3.55;;;1.80;;
11197;SDS011;5655;48.744;9.162;2024-02-15T04:01:11;2.13;;;1.40;;
11197;SDS011;5655;48.744;9.162;2024-02-15T04:03:38;2.05;;;1.70;;
11197;SDS011;5655;48.744;9.162;2024-02-15T04:06:04;3.88;;;1.75;;
11197;SDS011;5655;48.744;9.162;2024-02-15T04:08:30;6.15;;;1.98;;
11197;SDS011;5655;48.744;9.162;2024-02-15T04:10:55;4.00;;;1.80;;
11197;SDS011;5655;48.744;9.162;2024-02-15T04:13:22;3.08;;;1.52;;
11197;SDS011;5655;48.744;9.162;2024-02-15T04:15:48;1.50;;;1.38;;
11197;SDS011;5655;48.744;9.162;2024-02-15T04:18:15;3.15;;;1.55;;
11197;SDS011;5655;48.744;9.162;2024-02-15T04:20:41;6.63;;;2.15;;
11197;SDS011;5655;48.744;9.162;2024-02-15T04:23:10;3.97;;;1.60;;
11197;SDS011;5655;48.744;9.162;2024-02-15T04:25:36;3.47;;;1.48;;
11197;SDS011;5655;48.744;9.162;2024-02-15T04:28:01;2.95;;;1.70;;
11197;SDS011;5655;48.744;9.162;2024-02-15T04:30:28;4.00;;;2.05;;
11197;SDS011;5655;48.744;9.162;2024-02-15T04:32:55;2.65;;;1.65;;
11197;SDS011;5655;48.744;9.162;2024-02-15T04:35:20;2.28;;;1.33;;
11197;SDS011;5655;48.744;9.162;2024-02-15T04:37:46;3.70;;;1.70;;
11197;SDS011;5655;48.744;9.162;2024-02-15T04:40:12;2.58;;;1.42;;
11197;SDS011;5655;48.744;9.162;2024-02-15T04:42:38;3.33;;;2.03;;
11197;SDS011;5655;48.744;9.162;2024-02-15T04:45:05;2.78;;;1.50;;
11197;SDS011;5655;48.744;9.162;2024-02-15T04:47:33;4.07;;;1.60;;
11197;SDS011;5655;48.744;9.162;2024-02-15T04:49:59;2.55;;;1.50;;
11197;SDS011;5655;48.744;9.162;2024-02-15T04:52:24;3.30;;;1.60;;
11197;SDS011;5655;48.744;9.162;2024-02-15T04:54:50;3.53;;;1.70;;
11197;SDS011;5655;48.744;9.162;2024-02-15T04:57:15;2.40;;;1.25;;
11197;SDS011;5655;48.744;9.162;2024-02-15T04:59:41;4.45;;;1.85;;
11197;SDS011;5655;48.744;9.162;2024-02-15T05:02:12;2.70;;;1.58;;
11197;SDS011;5655;48.744;9.162;2024-02-15T05:04:37;2.40;;;1.58;;
11197;SDS011;5655;48.744;9.162;2024-02-15T05:07:02;2.42;;;1.35;;
11197;SDS011;5655;48.744;9.162;2024-02-15T05:09:28;3.75;;;1.50;;
11197;SDS011;5655;48.744;9.162;2024-02-15T05:11:56;4.10;;;1.73;;
11197;SDS011;5655;48.744;9.162;2024-02-15T05:14:22;2.22;;;1.55;;
11197;SDS011;5655;48.744;9.162;2024-02-15T05:16:48;1.63;;;1.42;;
11197;SDS011;5655;48.744;9.162;2024-02-15T05:19:17;2.88;;;1.50;;
11197;SDS011;5655;48.744;9.162;2024-02-15T05:21:43;4.40;;;1.67;;
11197;SDS011;5655;48.744;9.162;2024-02-15T05:24:15;5.82;;;1.73;;
11197;SDS011;5655;48.744;9.162;2024-02-15T05:26:43;2.92;;;1.70;;
11197;SDS011;5655;48.744;9.162;2024-02-15T05:29:11;1.90;;;1.58;;
11197;SDS011;5655;48.744;9.162;2024-02-15T05:31:37;5.38;;;1.90;;
11197;SDS011;5655;48.744;9.162;2024-02-15T05:34:04;4.38;;;1.65;;
11197;SDS011;5655;48.744;9.162;2024-02-15T05:36:32;3.15;;;1.98;;
11197;SDS011;5655;48.744;9.162;2024-02-15T05:38:58;3.75;;;1.75;;
11197;SDS011;5655;48.744;9.162;2024-02-15T05:41:24;4.32;;;2.00;;
11197;SDS011;5655;48.744;9.162;2024-02-15T05:43:49;3.20;;;1.92;;
11197;SDS011;5655;48.744;9.162;2024-02-15T05:46:17;2.60;;;1.60;;
11197;SDS011;5655;48.744;9.162;2024-02-15T05:48:42;3.65;;;1.90;;
11197;SDS011;5655;48.744;9.162;2024-02-15T05:51:07;3.58;;;1.90;;
11197;SDS011;5655;48.744;9.162;2024-02-15T05:53:33;1.85;;;1.67;;
11197;SDS011;5655;48.744;9.162;2024-02-15T05:56:03;4.22;;;1.73;;
11197;SDS011;5655;48.744;9.162;2024-02-15T05:58:30;2.30;;;1.50;;
11197;SDS011;5655;48.744;9.162;2024-02-15T06:00:56;2.55;;;1.70;;
11197;SDS011;5655;48.744;9.162;2024-02-15T06:03:26;3.35;;;1.70;;
11197;SDS011;5655;48.744;9.162;2024-02-15T06:05:54;4.00;;;1.80;;
11197;SDS011;5655;48.744;9.162;2024-02-15T06:08:26;4.78;;;1.67;;
11197;SDS011;5655;48.744;9.162;2024-02-15T06:10:52;1.88;;;1.45;;
11197;SDS011;5655;48.744;9.162;2024-02-15T06:13:18;3.17;;;1.80;;
11197;SDS011;5655;48.744;9.162;2024-02-15T06:15:44;2.58;;;1.70;;
11197;SDS011;5655;48.744;9.162;2024-02-15T06:18:12;5.88;;;1.92;;
11197;SDS011;5655;48.744;9.162;2024-02-15T06:20:39;3.90;;;2.00;;
11197;SDS011;5655;48.744;9.162;2024-02-15T06:23:05;4.40;;;2.22;;
11197;SDS011;5655;48.744;9.162;2024-02-15T06:25:32;3.45;;;1.65;;
11197;SDS011;5655;48.744;9.162;2024-02-15T06:27:58;3.63;;;2.00;;
11197;SDS011;5655;48.744;9.162;2024-02-15T06:30:27;4.38;;;2.20;;
11197;SDS011;5655;48.744;9.162;2024-02-15T06:33:12;3.60;;;1.95;;
11197;SDS011;5655;48.744;9.162;2024-02-15T06:35:56;9.57;;;1.95;;
11197;SDS011;5655;48.744;9.162;2024-02-15T06:38:40;2.97;;;1.80;;
11197;SDS011;5655;48.744;9.162;2024-02-15T06:41:24;4.20;;;1.95;;
11197;SDS011;5655;48.744;9.162;2024-02-15T06:43:50;6.75;;;2.17;;
11197;SDS011;5655;48.744;9.162;2024-02-15T06:46:15;3.25;;;2.22;;
11197;SDS011;5655;48.744;9.162;2024-02-15T06:48:43;3.78;;;2.40;;
11197;SDS011;5655;48.744;9.162;2024-02-15T06:51:12;4.15;;;1.90;;
11197;SDS011;5655;48.744;9.162;2024-02-15T06:53:39;4.22;;;2.38;;
11197;SDS011;5655;48.744;9.162;2024-02-15T06:56:04;3.17;;;2.13;;
11197;SDS011;5655;48.744;9.162;2024-02-15T06:58:30;5.13;;;2.22;;
11197;SDS011;5655;48.744;9.162;2024-02-15T07:00:55;2.13;;;1.80;;
11197;SDS011;5655;48.744;9.162;2024-02-15T07:03:21;6.10;;;2.38;;
11197;SDS011;5655;48.744;9.162;2024-02-15T07:05:47;4.32;;;2.30;;
11197;SDS011;5655;48.744;9.162;2024-02-15T07:08:13;5.38;;;2.38;;
11197;SDS011;5655;48.744;9.162;2024-02-15T07:10:39;4.63;;;2.22;;
11197;SDS011;5655;48.744;9.162;2024-02-15T07:13:05;3.42;;;2.25;;
11197;SDS011;5655;48.744;9.162;2024-02-15T07:15:31;5.90;;;3.03;;
11197;SDS011;5655;48.744;9.162;2024-02-15T07:17:58;5.93;;;2.72;;
11197;SDS011;5655;48.744;9.162;2024-02-15T07:20:24;3.90;;;2.60;;
11197;SDS011;5655;48.744;9.162;2024-02-15T07:22:50;4.00;;;2.30;;
11197;SDS011;5655;48.744;9.162;2024-02-15T07:25:16;2.60;;;2.25;;
11197;SDS011;5655;48.744;9.162;2024-02-15T07:27:41;3.72;;;2.53;;
11197;SDS011;5655;48.744;9.162;2024-02-15T07:30:07;3.55;;;2.17;;
11197;SDS011;5655;48.744;9.162;2024-02-15T07:32:33;4.18;;;2.10;;
11197;SDS011;5655;48.744;9.162;2024-02-15T07:35:00;7.57;;;2.78;;
11197;SDS011;5655;48.744;9.162;2024-02-15T07:37:26;5.28;;;2.10;;
11197;SDS011;5655;48.744;9.162;2024-02-15T07:39:51;7.00;;;2.25;;
11197;SDS011;5655;48.744;9.162;2024-02-15T07:42:17;6.07;;;2.05;;
11197;SDS011;5655;48.744;9.162;2024-02-15T07:44:42;4.38;;;2.78;;
11197;SDS011;5655;48.744;9.162;2024-02-15T07:47:08;4.00;;;2.38;;
11197;SDS011;5655;48.744;9.162;2024-02-15T07:49:35;4.63;;;2.83;;
11197;SDS011;5655;48.744;9.162;2024-02-15T07:52:03;3.00;;;2.03;;
11197;SDS011;5655;48.744;9.162;2024-02-15T07:54:29;5.65;;;2.22;;
11197;SDS011;5655;48.744;9.162;2024-02-15T07:56:56;3.45;;;2.20;;
11197;SDS011;5655;48.744;9.162;2024-02-15T07:59:23;6.60;;;2.17;;
11197;SDS011;5655;48.744;9.162;2024-02-15T08:01:48;6.38;;;2.03;;
11197;SDS011;5655;48.744;9.162;2024-02-15T08:04:15;2.97;;;1.83;;
11197;SDS011;5655;48.744;9.162;2024-02-15T08:06:44;4.28;;;2.10;;
11197;SDS011;5655;48.744;9.162;2024-02-15T08:09:09;3.47;;;2.00;;
11197;SDS011;5655;48.744;9.162;2024-02-15T08:11:38;4.65;;;1.80;;
11197;SDS011;5655;48.744;9.162;2024-02-15T08:14:05;5.20;;;1.80;;
11197;SDS011;5655;48.744;9.162;2024-02-15T08:16:33;5.07;;;1.80;;
11197;SDS011;5655;48.744;9.162;2024-02-15T08:18:59;3.70;;;1.90;;
11197;SDS011;5655;48.744;9.162;2024-02-15T08:21:26;2.03;;;1.58;;
11197;SDS011;5655;48.744;9.162;2024-02-15T08:23:54;4.65;;;1.90;;
11197;SDS011;5655;48.744;9.162;2024-02-15T08:26:20;2.38;;;1.67;;
11197;SDS011;5655;48.744;9.162;2024-02-15T08:28:46;3.67;;;1.85;;
11197;SDS011;5655;48.744;9.162;2024-02-15T08:31:12;3.10;;;1.60;;
11197;SDS011;5655;48.744;9.162;2024-02-15T08:33:40;3.63;;;1.67;;
11197;SDS011;5655;48.744;9.162;2024-02-15T08:36:05;2.88;;;1.83;;
11197;SDS011;5655;48.744;9.162;2024-02-15T08:38:32;3.35;;;1.60;;
11197;SDS011;5655;48.744;9.162;2024-02-15T08:40:59;3.10;;;1.50;;
11197;SDS011;5655;48.744;9.162;2024-02-15T08:43:24;5.38;;;1.50;;
11197;SDS011;5655;48.744;9.162;2024-02-15T08:45:49;1.60;;;1.40;;
11197;SDS011;5655;48.744;9.162;2024-02-15T08:48:15;2.00;;;1.38;;
11197;SDS011;5655;48.744;9.162;2024-02-15T08:50:41;5.28;;;1.70;;
11197;SDS011;5655;48.744;9.162;2024-02-15T08:53:06;5.45;;;1.90;;
11197;SDS011;5655;48.744;9.162;2024-02-15T08:55:32;5.38;;;1.83;;
11197;SDS011;5655;48.744;9.162;2024-02-15T08:58:00;3.42;;;1.80;;
11197;SDS011;5655;48.744;9.162;2024-02-15T09:00:27;6.30;;;2.03;;
11197;SDS011;5655;48.744;9.162;2024-02-15T09:02:52;3.58;;;1.65;;
11197;SDS011;5655;48.744;9.162;2024-02-15T09:05:18;3.45;;;1.75;;
11197;SDS011;5655;48.744;9.162;2024-02-15T09:07:45;4.20;;;1.48;;
11197;SDS011;5655;48.744;9.162;2024-02-15T09:10:15;4.13;;;1.83;;
11197;SDS011;5655;48.744;9.162;2024-02-15T09:12:44;3.42;;;1.80;;
11197;SDS011;5655;48.744;9.162;2024-02-15T09:15:12;5.40;;;1.73;;
11197;SDS011;5655;48.744;9.162;2024-02-15T09:17:37;3.35;;;2.17;;
11197;SDS011;5655;48.744;9.162;2024-02-15T09:22:33;4.25;;;1.70;;
11197;SDS011;5655;48.744;9.162;2024-02-15T09:24:58;4.07;;;1.70;;
11197;SDS011;5655;48.744;9.162;2024-02-15T09:27:24;3.03;;;2.05;;
11197;SDS011;5655;48.744;9.162;2024-02-15T09:29:49;3.55;;;2.03;;
11197;SDS011;5655;48.744;9.162;2024-02-15T09:32:14;4.50;;;2.25;;
11197;SDS011;5655;48.744;9.162;2024-02-15T09:34:40;6.40;;;2.10;;
11197;SDS011;5655;48.744;9.162;2024-02-15T09:37:06;5.43;;;2.60;;
11197;SDS011;5655;48.744;9.162;2024-02-15T09:39:32;4.28;;;1.73;;
11197;SDS011;5655;48.744;9.162;2024-02-15T09:41:57;10.32;;;2.00;;
11197;SDS011;5655;48.744;9.162;2024-02-15T09:44:25;4.53;;;2.10;;
11197;SDS011;5655;48.744;9.162;2024-02-15T09:47:02;2.03;;;1.50;;
11197;SDS011;5655;48.744;9.162;2024-02-15T09:49:36;2.22;;;1.23;;
11197;SDS011;5655;48.744;9.162;2024-02-15T09:52:04;3.42;;;1.67;;
11197;SDS011;5655;48.744;9.162;2024-02-15T09:54:32;3.13;;;1.60;;
11197;SDS011;5655;48.744;9.162;2024-02-15T09:56:59;2.13;;;1.42;;
11197;SDS011;5655;48.744;9.162;2024-02-15T09:59:26;3.38;;;1.60;;
11197;SDS011;5655;48.744;9.162;2024-02-15T10:01:52;3.80;;;1.17;;
11197;SDS011;5655;48.744;9.162;2024-02-15T10:04:23;2.42;;;1.33;;
11197;SDS011;5655;48.744;9.162;2024-02-15T10:06:50;3.13;;;1.20;;
11197;SDS011;5655;48.744;9.162;2024-02-15T10:09:29;4.45;;;1.60;;
11197;SDS011;5655;48.744;9.162;2024-02-15T10:11:56;2.28;;;1.20;;
11197;SDS011;5655;48.744;9.162;2024-02-15T10:14:23;1.83;;;1.38;;
11197;SDS011;5655;48.744;9.162;2024-02-15T10:16:50;2.72;;;1.35;;
11197;SDS011;5655;48.744;9.162;2024-02-15T10:19:17;3.42;;;1.20;;
11197;SDS011;5655;48.744;9.162;2024-02-15T10:21:43;1.88;;;1.10;;
11197;SDS011;5655;48.744;9.162;2024-02-15T10:24:09;1.85;;;0.90;;
11197;SDS011;5655;48.744;9.162;2024-02-15T10:26:34;2.28;;;1.23;;
11197;SDS011;5655;48.744;9.162;2024-02-15T10:29:07;2.03;;;0.90;;
11197;SDS011;5655;48.744;9.162;2024-02-15T10:31:34;2.83;;;1.13;;
11197;SDS011;5655;48.744;9.162;2024-02-15T10:34:06;3.33;;;1.00;;
11197;SDS011;5655;48.744;9.162;2024-02-15T10:36:36;2.30;;;0.90;;
11197;SDS011;5655;48.744;9.162;2024-02-15T10:39:14;4.00;;;1.10;;
11197;SDS011;5655;48.744;9.162;2024-02-15T10:41:45;1.27;;;0.93;;
11197;SDS011;5655;48.744;9.162;2024-02-15T10:44:21;1.85;;;0.98;;
11197;SDS011;5655;48.744;9.162;2024-02-15T10:46:48;2.00;;;0.90;;
11197;SDS011;5655;48.744;9.162;2024-02-15T10:49:18;4.07;;;0.90;;
11197;SDS011;5655;48.744;9.162;2024-02-15T10:52:08;2.78;;;1.30;;
11197;SDS011;5655;48.744;9.162;2024-02-15T10:55:01;4.13;;;1.30;;
11197;SDS011;5655;48.744;9.162;2024-02-15T10:57:31;2.80;;;1.02;;
11197;SDS011;5655;48.744;9.162;2024-02-15T10:59:58;2.60;;;1.10;;
11197;SDS011;5655;48.744;9.162;2024-02-15T11:02:28;2.67;;;0.90;;
11197;SDS011;5655;48.744;9.162;2024-02-15T11:04:55;4.10;;;1.17;;
11197;SDS011;5655;48.744;9.162;2024-02-15T11:07:25;2.63;;;1.13;;
11197;SDS011;5655;48.744;9.162;2024-02-15T11:09:54;1.45;;;0.90;;
11197;SDS011;5655;48.744;9.162;2024-02-15T11:12:21;1.45;;;1.00;;
11197;SDS011;5655;48.744;9.162;2024-02-15T11:14:48;3.30;;;1.13;;
11197;SDS011;5655;48.744;9.162;2024-02-15T11:17:45;2.42;;;1.33;;
11197;SDS011;5655;48.744;9.162;2024-02-15T11:20:08;2.30;;;1.40;;
11197;SDS011;5655;48.744;9.162;2024-02-15T11:22:36;1.35;;;1.08;;
11197;SDS011;5655;48.744;9.162;2024-02-15T11:25:02;3.28;;;1.15;;
11197;SDS011;5655;48.744;9.162;2024-02-15T11:27:37;4.13;;;1.30;;
11197;SDS011;5655;48.744;9.162;2024-02-15T11:30:06;4.53;;;1.58;;
11197;SDS011;5655;48.744;9.162;2024-02-15T11:35:04;2.13;;;0.95;;
11197;SDS011;5655;48.744;9.162;2024-02-15T11:42:55;2.33;;;1.15;;
11197;SDS011;5655;48.744;9.162;2024-02-15T11:45:27;3.88;;;1.20;;
11197;SDS011;5655;48.744;9.162;2024-02-15T11:47:58;2.22;;;1.08;;
11197;SDS011;5655;48.744;9.162;2024-02-15T11:50:23;2.88;;;1.15;;
11197;SDS011;5655;48.744;9.162;2024-02-15T11:52:51;2.97;;;1.35;;
11197;SDS011;5655;48.744;9.162;2024-02-15T11:55:23;1.50;;;1.15;;
11197;SDS011;5655;48.744;9.162;2024-02-15T11:57:58;4.07;;;1.17;;
11197;SDS011;5655;48.744;9.162;2024-02-15T12:00:41;2.45;;;1.00;;
11197;SDS011;5655;48.744;9.162;2024-02-15T12:03:25;2.50;;;1.20;;
11197;SDS011;5655;48.744;9.162;2024-02-15T12:06:09;1.73;;;1.00;;
11197;SDS011;5655;48.744;9.162;2024-02-15T12:08:54;2.28;;;0.80;;
11197;SDS011;5655;48.744;9.162;2024-02-15T12:11:38;3.47;;;1.25;;
11197;SDS011;5655;48.744;9.162;2024-02-15T12:14:23;2.55;;;1.10;;
11197;SDS011;5655;48.744;9.162;2024-02-15T12:17:08;2.40;;;0.80;;
11197;SDS011;5655;48.744;9.162;2024-02-15T12:19:54;2.92;;;1.02;;
11197;SDS011;5655;48.744;9.162;2024-02-15T12:22:25;4.65;;;1.10;;
11197;SDS011;5655;48.744;9.162;2024-02-15T12:24:57;4.72;;;1.10;;
11197;SDS011;5655;48.744;9.162;2024-02-15T12:27:23;2.25;;;0.90;;
11197;SDS011;5655;48.744;9.162;2024-02-15T12:29:53;2.03;;;1.38;;
11197;SDS011;5655;48.744;9.162;2024-02-15T12:32:20;2.63;;;0.80;;
11197;SDS011;5655;48.744;9.162;2024-02-15T12:34:46;2.35;;;0.98;;
11197;SDS011;5655;48.744;9.162;2024-02-15T12:37:12;2.85;;;1.00;;
11197;SDS011;5655;48.744;9.162;2024-02-15T12:39:38;4.30;;;1.05;;
11197;SDS011;5655;48.744;9.162;2024-02-15T12:42:03;1.10;;;0.70;;
11197;SDS011;5655;48.744;9.162;2024-02-15T12:44:32;3.33;;;0.88;;
11197;SDS011;5655;48.744;9.162;2024-02-15T12:46:58;5.13;;;1.50;;
11197;SDS011;5655;48.744;9.162;2024-02-15T12:51:51;2.65;;;0.90;;
11197;SDS011;5655;48.744;9.162;2024-02-15T12:54:19;2.80;;;1.00;;
11197;SDS011;5655;48.744;9.162;2024-02-15T12:56:46;3.63;;;1.10;;
11197;SDS011;5655;48.744;9.162;2024-02-15T12:59:13;1.88;;;0.70;;
11197;SDS011;5655;48.744;9.162;2024-02-15T13:01:39;2.42;;;1.02;;
11197;SDS011;5655;48.744;9.162;2024-02-15T13:04:04;2.35;;;1.00;;
11197;SDS011;5655;48.744;9.162;2024-02-15T13:06:31;3.65;;;1.00;;
11197;SDS011;5655;48.744;9.162;2024-02-15T13:08:59;2.67;;;1.27;;
11197;SDS011;5655;48.744;9.162;2024-02-15T13:11:26;1.25;;;0.90;;
11197;SDS011;5655;48.744;9.162;2024-02-15T13:13:52;1.83;;;0.90;;
11197;SDS011;5655;48.744;9.162;2024-02-15T13:16:19;3.00;;;0.90;;
11197;SDS011;5655;48.744;9.162;2024-02-15T13:18:45;2.90;;;1.25;;
11197;SDS011;5655;48.744;9.162;2024-02-15T13:21:12;1.65;;;1.00;;
11197;SDS011;5655;48.744;9.162;2024-02-15T13:23:37;3.28;;;1.15;;
11197;SDS011;5655;48.744;9.162;2024-02-15T13:26:02;2.05;;;0.80;;
11197;SDS011;5655;48.744;9.162;2024-02-15T13:28:29;2.28;;;1.15;;
11197;SDS011;5655;48.744;9.162;2024-02-15T13:30:55;3.42;;;1.00;;
11197;SDS011;5655;48.744;9.162;2024-02-15T13:33:21;3.35;;;0.90;;
11197;SDS011;5655;48.744;9.162;2024-02-15T13:35:46;2.72;;;1.08;;
11197;SDS011;5655;48.744;9.162;2024-02-15T13:38:14;1.67;;;1.00;;
11197;SDS011;5655;48.744;9.162;2024-02-15T13:40:47;1.50;;;1.00;;
11197;SDS011;5655;48.744;9.162;2024-02-15T13:43:14;3.55;;;1.20;;
11197;SDS011;5655;48.744;9.162;2024-02-15T13:45:42;1.88;;;1.15;;
11197;SDS011;5655;48.744;9.162;2024-02-15T13:48:09;1.27;;;0.88;;
11197;SDS011;5655;48.744;9.162;2024-02-15T13:50:37;2.28;;;1.23;;
11197;SDS011;5655;48.744;9.162;2024-02-15T13:53:04;1.13;;;0.90;;
11197;SDS011;5655;48.744;9.162;2024-02-15T13:55:30;1.67;;;1.00;;
11197;SDS011;5655;48.744;9.162;2024-02-15T13:57:56;3.60;;;1.20;;
11197;SDS011;5655;48.744;9.162;2024-02-15T14:00:22;3.15;;;0.90;;
11197;SDS011;5655;48.744;9.162;2024-02-15T14:05:18;1.85;;;0.95;;
11197;SDS011;5655;48.744;9.162;2024-02-15T14:07:48;2.28;;;1.00;;
11197;SDS011;5655;48.744;9.162;2024-02-15T14:10:15;2.50;;;0.88;;
11197;SDS011;5655;48.744;9.162;2024-02-15T14:12:43;1.40;;;1.00;;
11197;SDS011;5655;48.744;9.162;2024-02-15T14:15:09;3.03;;;1.00;;
11197;SDS011;5655;48.744;9.162;2024-02-15T14:17:35;2.92;;;1.00;;
11197;SDS011;5655;48.744;9.162;2024-02-15T14:20:00;2.63;;;0.73;;
11197;SDS011;5655;48.744;9.162;2024-02-15T14:22:26;4.65;;;1.40;;
11197;SDS011;5655;48.744;9.162;2024-02-15T14:24:54;2.45;;;1.00;;
11197;SDS011;5655;48.744;9.162;2024-02-15T14:27:20;2.60;;;1.25;;
11197;SDS011;5655;48.744;9.162;2024-02-15T14:29:46;4.10;;;1.10;;
11197;SDS011;5655;48.744;9.162;2024-02-15T14:32:31;4.30;;;0.95;;
11197;SDS011;5655;48.744;9.162;2024-02-15T14:35:15;1.15;;;0.82;;
11197;SDS011;5655;48.744;9.162;2024-02-15T14:37:42;4.55;;;1.42;;
11197;SDS011;5655;48.744;9.162;2024-02-15T14:40:07;2.80;;;1.20;;
11197;SDS011;5655;48.744;9.162;2024-02-15T14:42:34;2.40;;;1.25;;
11197;SDS011;5655;48.744;9.162;2024-02-15T14:45:02;3.88;;;1.27;;
11197;SDS011;5655;48.744;9.162;2024-02-15T14:47:28;3.60;;;1.20;;
11197;SDS011;5655;48.744;9.162;2024-02-15T14:49:53;1.92;;;1.20;;
11197;SDS011;5655;48.744;9.162;2024-02-15T14:52:18;4.80;;;1.52;;
11197;SDS011;5655;48.744;9.162;2024-02-15T14:54:44;3.80;;;1.60;;
11197;SDS011;5655;48.744;9.162;2024-02-15T14:57:09;4.32;;;1.38;;
11197;SDS011;5655;48.744;9.162;2024-02-15T14:59:34;6.60;;;1.80;;
11197;SDS011;5655;48.744;9.162;2024-02-15T15:02:00;2.90;;;1.45;;
11197;SDS011;5655;48.744;9.162;2024-02-15T15:04:33;4.68;;;1.20;;
11197;SDS011;5655;48.744;9.162;2024-02-15T15:07:12;4.03;;;1.20;;
11197;SDS011;5655;48.744;9.162;2024-02-15T15:09:56;2.10;;;1.52;;
11197;SDS011;5655;48.744;9.162;2024-02-15T15:12:40;2.80;;;1.42;;
11197;SDS011;5655;48.744;9.162;2024-02-15T15:15:10;3.30;;;1.02;;
11197;SDS011;5655;48.744;9.162;2024-02-15T15:17:38;3.65;;;1.48;;
11197;SDS011;5655;48.744;9.162;2024-02-15T15:20:04;2.88;;;1.13;;